Pagrindinis puslapis
METAR-TAF:

METAR-TAF

Oro uostai :

Kiutahija, Turkija

platuma: 39-06-41N, ilguma: 30-07-48E, Aukštis: 1013 m

METAR: trūkstamas

Laikas: 16:50 (13:50 UTC)

Prognozė

Ataskaita buvo paskelbta 3 valandos ir 10 minutes, ne 10:40 UTC
Prognozė galioja nuo 29 metu 12 UTC su 29 metu 21 UTC
Vėjas 2 kt nuo kintamojo kryptimis
Matomumas 10 km arba daugiau
Išsisklaidę debesys ne aukštis 3500 ft
Laikinai
nuo 29 metu 12 UTC su 29 metu 16 UTC
Vėjas 12 kt iš Vakarų/Pietvakarių
Su prošvaistėmis ne aukštis 3000 ft
lietus

TAF: LTBZ 291040Z 2912/2921 VRB02KT 9999 SCT035 TEMPO 2912/2916 24012KT -SHRA BKN030

Orai ataskaitas ir orų prognozės (METAR, TAF).

turimą stotys yra geltonos ir raudonos taškus žemėlapyje.

Perkelti pele per norėdami pamatyti stoties vardą.

Tada spustelėkite, norėdami matyti oro stebėjimo ir prognozės.

Norėdami pakeisti žemėlapį: spustelėkite ant žalios mygtukų su juodo kryžiaus žemyn,; žalią mygtuką su brūkšneliu, jei norite nutolinti; arba žalių rodyklių gretimoms žemėlapius.


METAR-TAF: